createdAt,value
2023-02-20T00:00:55.178Z,51.215881
2023-02-20T00:01:55.151Z,51.215931
2023-02-20T00:02:55.228Z,51.216194
2023-02-20T00:03:55.191Z,51.216244
2023-02-20T00:04:55.133Z,51.215969
2023-02-20T00:05:55.125Z,51.216038
2023-02-20T00:06:55.132Z,51.215782
2023-02-20T00:07:55.116Z,51.215939
2023-02-20T00:08:55.116Z,51.216114
2023-02-20T00:09:55.111Z,51.216240
2023-02-20T00:10:55.089Z,51.216179
2023-02-20T00:11:55.103Z,51.216110
2023-02-20T00:12:55.082Z,51.215508
2023-02-20T00:13:55.062Z,51.215652
2023-02-20T00:14:55.070Z,51.215740
2023-02-20T00:15:55.104Z,51.215824
2023-02-20T00:16:55.069Z,51.216034
2023-02-20T00:17:56.109Z,51.216095
2023-02-20T00:18:55.062Z,51.215813
2023-02-20T00:19:55.030Z,51.215908
2023-02-20T00:20:55.022Z,51.215977
2023-02-20T00:21:55.034Z,51.215958
2023-02-20T00:22:54.998Z,51.215839
2023-02-20T00:23:55.003Z,51.215630
2023-02-20T00:24:54.999Z,51.215134
2023-02-20T00:25:54.990Z,51.214581
2023-02-20T00:26:54.996Z,51.214424
2023-02-20T00:27:54.972Z,51.214287
2023-02-20T00:28:54.975Z,51.214191
2023-02-20T00:29:54.960Z,51.214397
2023-02-20T00:30:54.988Z,51.215088
2023-02-20T00:31:55.130Z,51.215267
2023-02-20T00:32:54.947Z,51.215557
2023-02-20T00:33:54.957Z,51.216236
2023-02-20T00:34:54.924Z,51.216473
2023-02-20T00:35:54.927Z,51.216084
2023-02-20T00:36:54.910Z,51.215801
2023-02-20T00:37:54.901Z,51.215839
2023-02-20T00:38:55.902Z,51.215519
2023-02-20T00:39:54.900Z,51.215561
2023-02-20T00:40:54.899Z,51.215561
2023-02-20T00:41:54.882Z,51.216099
2023-02-20T00:42:54.884Z,51.216042
2023-02-20T00:43:54.900Z,51.216221
2023-02-20T00:44:54.867Z,51.216354
2023-02-20T00:45:54.858Z,51.216431
2023-02-20T00:46:55.859Z,51.216084
2023-02-20T00:47:54.842Z,51.215687
2023-02-20T00:48:54.851Z,51.215504
2023-02-20T00:49:54.847Z,51.215424
2023-02-20T00:50:54.836Z,51.215652
2023-02-20T00:51:54.817Z,51.215897
2023-02-20T00:52:54.852Z,51.216057
2023-02-20T00:53:55.797Z,51.215477
2023-02-20T00:54:54.836Z,51.215672
2023-02-20T00:55:54.800Z,51.215569
2023-02-20T00:56:54.776Z,51.215839
2023-02-20T00:57:54.790Z,51.216141
2023-02-20T00:58:54.777Z,51.216331
2023-02-20T00:59:54.776Z,51.215729
2023-02-20T01:00:54.772Z,51.215672
2023-02-20T01:01:54.828Z,51.215984
2023-02-20T01:02:54.807Z,51.215714
2023-02-20T01:03:54.747Z,51.215870
2023-02-20T01:04:54.743Z,51.216198
2023-02-20T01:05:54.765Z,51.216534
2023-02-20T01:06:54.710Z,51.216019
2023-02-20T01:07:54.699Z,51.216068
2023-02-20T01:08:54.701Z,51.216152
2023-02-20T01:09:54.697Z,51.216198
2023-02-20T01:10:54.712Z,51.216022
2023-02-20T01:11:54.692Z,51.216179
2023-02-20T01:12:54.674Z,51.216385
2023-02-20T01:13:54.660Z,51.215824
2023-02-20T01:14:54.663Z,51.214848
2023-02-20T01:15:54.663Z,51.214943
2023-02-20T01:16:54.643Z,51.215240
2023-02-20T01:17:54.641Z,51.215691
2023-02-20T01:18:54.628Z,51.216064
2023-02-20T01:19:54.637Z,51.216091
2023-02-20T01:20:54.631Z,51.215904
2023-02-20T01:21:54.612Z,51.215141
2023-02-20T01:22:54.601Z,51.215652
2023-02-20T01:23:55.593Z,51.215752
2023-02-20T01:24:54.591Z,51.215828
2023-02-20T01:25:54.608Z,51.215836
2023-02-20T01:26:54.585Z,51.215912
2023-02-20T01:27:54.598Z,51.215572
2023-02-20T01:28:54.581Z,51.215622
2023-02-20T01:29:54.559Z,51.215919
2023-02-20T01:30:54.636Z,51.215694
2023-02-20T01:31:55.750Z,51.215778
2023-02-20T01:32:54.541Z,51.216030
2023-02-20T01:33:54.541Z,51.215702
2023-02-20T01:34:54.520Z,51.215778
2023-02-20T01:35:54.573Z,51.215752
2023-02-20T01:36:54.564Z,51.215927
2023-02-20T01:37:54.501Z,51.215832
2023-02-20T01:38:54.526Z,51.215969
2023-02-20T01:39:54.508Z,51.215889
2023-02-20T01:40:54.512Z,51.215801
2023-02-20T01:41:54.539Z,51.215641
2023-02-20T01:42:54.492Z,51.215832
2023-02-20T01:43:54.471Z,51.215763
2023-02-20T01:44:54.472Z,51.215824
2023-02-20T01:45:54.464Z,51.215942
2023-02-20T01:46:54.549Z,51.215912
2023-02-20T01:47:54.452Z,51.215485
2023-02-20T01:48:54.446Z,51.215683
2023-02-20T01:49:54.443Z,51.215847
2023-02-20T01:50:54.429Z,51.216076
2023-02-20T01:51:54.450Z,51.216038
2023-02-20T01:52:54.426Z,51.215919
2023-02-20T01:53:54.409Z,51.215969
2023-02-20T01:54:54.394Z,51.216049
2023-02-20T01:55:54.409Z,51.216183
2023-02-20T01:56:54.383Z,51.216118
2023-02-20T01:57:54.392Z,51.216198
2023-02-20T01:58:54.376Z,51.216251
2023-02-20T01:59:54.382Z,51.216248
2023-02-20T02:00:54.487Z,51.216301
2023-02-20T02:01:54.416Z,51.216286
2023-02-20T02:02:54.387Z,51.216278
2023-02-20T02:03:54.343Z,51.216133
2023-02-20T02:04:54.336Z,51.216114
2023-02-20T02:05:54.334Z,51.216164
2023-02-20T02:06:54.358Z,51.216034
2023-02-20T02:07:54.337Z,51.215878
2023-02-20T02:08:54.315Z,51.215881
2023-02-20T02:09:54.298Z,51.216057
2023-02-20T02:10:54.302Z,51.215969
2023-02-20T02:11:54.287Z,51.216034
2023-02-20T02:12:54.287Z,51.216061
2023-02-20T02:13:54.292Z,51.215988
2023-02-20T02:14:54.263Z,51.215912
2023-02-20T02:15:54.348Z,51.216034
2023-02-20T02:16:54.255Z,51.216011
2023-02-20T02:17:54.257Z,51.215950
2023-02-20T02:18:54.261Z,51.215881
2023-02-20T02:19:54.240Z,51.215931
2023-02-20T02:20:54.253Z,51.216019
2023-02-20T02:21:54.231Z,51.216045
2023-02-20T02:22:54.239Z,51.216015
2023-02-20T02:23:54.251Z,51.215984
2023-02-20T02:24:54.201Z,51.215744
2023-02-20T02:25:54.191Z,51.215809
2023-02-20T02:26:54.179Z,51.215809
2023-02-20T02:27:54.179Z,51.215942
2023-02-20T02:28:54.185Z,51.215851
2023-02-20T02:29:54.157Z,51.216011
2023-02-20T02:30:54.174Z,51.215816
2023-02-20T02:31:54.184Z,51.215832
2023-02-20T02:32:54.145Z,51.215954
2023-02-20T02:33:54.156Z,51.215988
2023-02-20T02:34:54.120Z,51.216038
2023-02-20T02:35:54.115Z,51.216053
2023-02-20T02:36:54.117Z,51.215984
2023-02-20T02:37:54.105Z,51.215973
2023-02-20T02:38:54.119Z,51.216007
2023-02-20T02:39:54.086Z,51.215977
2023-02-20T02:40:54.081Z,51.216125
2023-02-20T02:41:54.076Z,51.215771
2023-02-20T02:42:54.117Z,51.215923
2023-02-20T02:43:54.060Z,51.215908
2023-02-20T02:44:54.082Z,51.215927
2023-02-20T02:45:54.144Z,51.215984
2023-02-20T02:46:54.053Z,51.215836
2023-02-20T02:47:54.037Z,51.216007
2023-02-20T02:48:54.050Z,51.216137
2023-02-20T02:49:54.045Z,51.216087
2023-02-20T02:50:54.021Z,51.216068
2023-02-20T02:51:54.009Z,51.216042
2023-02-20T02:52:54.016Z,51.215782
2023-02-20T02:53:54.996Z,51.215839
2023-02-20T02:54:53.988Z,51.215973
2023-02-20T02:55:53.999Z,51.215919
2023-02-20T02:56:53.982Z,51.216003
2023-02-20T02:57:53.969Z,51.215965
2023-02-20T02:58:53.972Z,51.216019
2023-02-20T02:59:53.966Z,51.216190
2023-02-20T03:00:54.056Z,51.216061
2023-02-20T03:01:53.946Z,51.215939
2023-02-20T03:02:53.987Z,51.215878
2023-02-20T03:03:53.927Z,51.215912
2023-02-20T03:04:53.918Z,51.215973
2023-02-20T03:05:54.078Z,51.215912
2023-02-20T03:06:53.916Z,51.215923
2023-02-20T03:07:53.907Z,51.216064
2023-02-20T03:08:53.894Z,51.216106
2023-02-20T03:09:53.898Z,51.216175
2023-02-20T03:10:53.889Z,51.216064
2023-02-20T03:11:53.890Z,51.216099
2023-02-20T03:12:53.871Z,51.216064
2023-02-20T03:13:53.869Z,51.216030
2023-02-20T03:14:53.858Z,51.216072
2023-02-20T03:15:53.853Z,51.216084
2023-02-20T03:16:53.909Z,51.216164
2023-02-20T03:17:53.839Z,51.216251
2023-02-20T03:18:53.845Z,51.216129
2023-02-20T03:19:53.848Z,51.216061
2023-02-20T03:20:53.825Z,51.216007
2023-02-20T03:21:53.821Z,51.216034
2023-02-20T03:22:53.832Z,51.215836
2023-02-20T03:23:53.846Z,51.215912
2023-02-20T03:24:53.803Z,51.215984
2023-02-20T03:25:53.802Z,51.216003
2023-02-20T03:26:53.795Z,51.216072
2023-02-20T03:27:53.786Z,51.216091
2023-02-20T03:28:53.784Z,51.216148
2023-02-20T03:29:53.760Z,51.216148
2023-02-20T03:30:53.757Z,51.216137
2023-02-20T03:31:54.870Z,51.216049
2023-02-20T03:32:53.756Z,51.216122
2023-02-20T03:33:53.745Z,51.216007
2023-02-20T03:34:53.744Z,51.216030
2023-02-20T03:35:53.733Z,51.216007
2023-02-20T03:36:53.726Z,51.216076
2023-02-20T03:37:53.733Z,51.216087
2023-02-20T03:38:53.709Z,51.216148
2023-02-20T03:39:53.705Z,51.216141
2023-02-20T03:40:53.706Z,51.216072
2023-02-20T03:41:53.695Z,51.216122
2023-02-20T03:42:53.692Z,51.216053
2023-02-20T03:43:53.674Z,51.215912
2023-02-20T03:44:53.680Z,51.215927
2023-02-20T03:45:53.708Z,51.216011
2023-02-20T03:46:53.659Z,51.215919
2023-02-20T03:47:53.668Z,51.216030
2023-02-20T03:48:53.648Z,51.215847
2023-02-20T03:49:53.648Z,51.215782
2023-02-20T03:50:53.629Z,51.215961
2023-02-20T03:51:53.622Z,51.215981
2023-02-20T03:52:53.611Z,51.215843
2023-02-20T03:53:53.613Z,51.215794
2023-02-20T03:54:53.617Z,51.215855
2023-02-20T03:55:53.601Z,51.215866
2023-02-20T03:56:53.600Z,51.215809
2023-02-20T03:57:53.583Z,51.215771
2023-02-20T03:58:53.581Z,51.215919
2023-02-20T03:59:53.720Z,51.215855
2023-02-20T04:00:53.569Z,51.215847
2023-02-20T04:01:53.558Z,51.215767
2023-02-20T04:02:53.554Z,51.215534
2023-02-20T04:03:53.536Z,51.215542
2023-02-20T04:04:53.527Z,51.215855
2023-02-20T04:05:53.693Z,51.216164
2023-02-20T04:06:53.529Z,51.215958
2023-02-20T04:07:53.515Z,51.215981
2023-02-20T04:08:53.506Z,51.215916
2023-02-20T04:09:53.491Z,51.215916
2023-02-20T04:10:53.540Z,51.216064
2023-02-20T04:11:53.476Z,51.216064
2023-02-20T04:12:53.497Z,51.215923
2023-02-20T04:13:53.470Z,51.216053
2023-02-20T04:14:53.474Z,51.216087
2023-02-20T04:15:53.458Z,51.216141
2023-02-20T04:16:53.496Z,51.216175
2023-02-20T04:17:53.459Z,51.216198
2023-02-20T04:18:53.453Z,51.216209
2023-02-20T04:19:53.438Z,51.216290
2023-02-20T04:20:53.432Z,51.216110
2023-02-20T04:21:53.450Z,51.216034
2023-02-20T04:22:53.406Z,51.216068
2023-02-20T04:23:53.407Z,51.216175
2023-02-20T04:24:53.407Z,51.216091
2023-02-20T04:25:53.389Z,51.216080
2023-02-20T04:26:53.399Z,51.216061
2023-02-20T04:27:53.402Z,51.216053
2023-02-20T04:28:53.373Z,51.216106
2023-02-20T04:29:53.375Z,51.216084
2023-02-20T04:30:53.365Z,51.216053
2023-02-20T04:31:53.374Z,51.216160
2023-02-20T04:32:53.356Z,51.216148
2023-02-20T04:33:53.342Z,51.216148
2023-02-20T04:34:53.365Z,51.216118
2023-02-20T04:35:53.330Z,51.216042
2023-02-20T04:36:53.314Z,51.216030
2023-02-20T04:37:53.347Z,51.216045
2023-02-20T04:38:53.313Z,51.216034
2023-02-20T04:39:53.300Z,51.216057
2023-02-20T04:40:53.354Z,51.216152
2023-02-20T04:41:53.280Z,51.216183
2023-02-20T04:42:53.290Z,51.216049
2023-02-20T04:43:53.260Z,51.215954
2023-02-20T04:44:53.263Z,51.216076
2023-02-20T04:45:53.268Z,51.216022
2023-02-20T04:46:53.261Z,51.216190
2023-02-20T04:47:53.273Z,51.216129
2023-02-20T04:48:53.244Z,51.216190
2023-02-20T04:49:53.249Z,51.216076
2023-02-20T04:50:53.223Z,51.216072
2023-02-20T04:51:53.220Z,51.216026
2023-02-20T04:52:53.236Z,51.216099
2023-02-20T04:53:53.214Z,51.216022
2023-02-20T04:54:53.201Z,51.216000
2023-02-20T04:55:53.190Z,51.216148
2023-02-20T04:56:53.181Z,51.216187
2023-02-20T04:57:53.174Z,51.216145
2023-02-20T04:58:53.196Z,51.216236
2023-02-20T04:59:53.177Z,51.216240
2023-02-20T05:00:53.150Z,51.216087
2023-02-20T05:01:53.160Z,51.216099
2023-02-20T05:02:53.142Z,51.216133
2023-02-20T05:03:53.165Z,51.216087
2023-02-20T05:04:53.200Z,51.216106
2023-02-20T05:05:53.137Z,51.216114
2023-02-20T05:06:53.132Z,51.216061
2023-02-20T05:07:53.126Z,51.216099
2023-02-20T05:08:53.133Z,51.216171
2023-02-20T05:09:53.131Z,51.216030
2023-02-20T05:10:53.100Z,51.216057
2023-02-20T05:11:53.087Z,51.216042
2023-02-20T05:12:53.096Z,51.215954
2023-02-20T05:13:53.116Z,51.216045
2023-02-20T05:14:55.393Z,51.216087
2023-02-20T05:15:53.095Z,51.216137
2023-02-20T05:16:53.056Z,51.216125
2023-02-20T05:17:53.048Z,51.216068
2023-02-20T05:18:53.043Z,51.216133
2023-02-20T05:19:53.045Z,51.216049
2023-02-20T05:20:53.045Z,51.216057
2023-02-20T05:21:53.034Z,51.216091
2023-02-20T05:22:53.032Z,51.216137
2023-02-20T05:23:53.001Z,51.216125
2023-02-20T05:24:53.010Z,51.216206
2023-02-20T05:25:52.995Z,51.216171
2023-02-20T05:26:52.989Z,51.215961
2023-02-20T05:27:53.010Z,51.215996
2023-02-20T05:28:52.980Z,51.216022
2023-02-20T05:29:52.977Z,51.215908
2023-02-20T05:30:52.986Z,51.215958
2023-02-20T05:31:53.136Z,51.216110
2023-02-20T05:32:52.944Z,51.215939
2023-02-20T05:33:52.957Z,51.216118
2023-02-20T05:34:52.928Z,51.216232
2023-02-20T05:35:52.920Z,51.216202
2023-02-20T05:36:53.929Z,51.216019
2023-02-20T05:37:52.912Z,51.216087
2023-02-20T05:38:53.917Z,51.216068
2023-02-20T05:39:52.908Z,51.216007
2023-02-20T05:40:52.900Z,51.216049
2023-02-20T05:41:52.890Z,51.216190
2023-02-20T05:42:52.880Z,51.216148
2023-02-20T05:43:52.887Z,51.216049
2023-02-20T05:44:52.884Z,51.216045
2023-02-20T05:45:52.864Z,51.216091
2023-02-20T05:46:52.886Z,51.215961
2023-02-20T05:47:52.854Z,51.216152
2023-02-20T05:48:52.853Z,51.216068
2023-02-20T05:49:52.839Z,51.216011
2023-02-20T05:50:52.836Z,51.216110
2023-02-20T05:51:52.875Z,51.216042
2023-02-20T05:52:52.822Z,51.216187
2023-02-20T05:53:52.847Z,51.216091
2023-02-20T05:54:52.800Z,51.216061
2023-02-20T05:55:52.804Z,51.216034
2023-02-20T05:56:52.792Z,51.216007
2023-02-20T05:57:52.811Z,51.216087
2023-02-20T05:58:52.784Z,51.216084
2023-02-20T05:59:52.769Z,51.216072
2023-02-20T06:00:52.792Z,51.216053
2023-02-20T06:01:52.766Z,51.216084
2023-02-20T06:02:52.763Z,51.216007
2023-02-20T06:03:52.747Z,51.216038
2023-02-20T06:04:52.796Z,51.215546
2023-02-20T06:05:52.732Z,51.215904
2023-02-20T06:06:52.719Z,51.216045
2023-02-20T06:07:52.721Z,51.216076
2023-02-20T06:08:52.719Z,51.215927
2023-02-20T06:09:52.706Z,51.215942
2023-02-20T06:10:52.700Z,51.215839
2023-02-20T06:11:52.695Z,51.215885
2023-02-20T06:12:52.686Z,51.215908
2023-02-20T06:13:52.700Z,51.215988
2023-02-20T06:14:52.664Z,51.215820
2023-02-20T06:15:52.683Z,51.215908
2023-02-20T06:16:52.683Z,51.215710
2023-02-20T06:17:52.819Z,51.215504
2023-02-20T06:18:52.894Z,51.214832
2023-02-20T06:19:52.643Z,51.215050
2023-02-20T06:20:52.635Z,51.215199
2023-02-20T06:21:52.627Z,51.215443
2023-02-20T06:22:52.616Z,51.215397
2023-02-20T06:23:52.643Z,51.215801
2023-02-20T06:24:52.607Z,51.216206
2023-02-20T06:25:52.601Z,51.216042
2023-02-20T06:26:52.597Z,51.215897
2023-02-20T06:27:52.806Z,51.215992
2023-02-20T06:28:52.831Z,51.216015
2023-02-20T06:29:52.574Z,51.216183
2023-02-20T06:30:52.581Z,51.216095
2023-02-20T06:31:52.642Z,51.215870
2023-02-20T06:32:52.564Z,51.216026
2023-02-20T06:33:52.571Z,51.216106
2023-02-20T06:34:52.551Z,51.215981
2023-02-20T06:35:52.540Z,51.215874
2023-02-20T06:36:52.531Z,51.215790
2023-02-20T06:37:52.521Z,51.215775
2023-02-20T06:38:52.546Z,51.215725
2023-02-20T06:39:52.538Z,51.215702
2023-02-20T06:40:52.518Z,51.215706
2023-02-20T06:41:52.508Z,51.215778
2023-02-20T06:42:52.491Z,51.215961
2023-02-20T06:43:52.494Z,51.216038
2023-02-20T06:44:52.485Z,51.216125
2023-02-20T06:45:52.488Z,51.216171
2023-02-20T06:46:52.557Z,51.216007
2023-02-20T06:47:52.452Z,51.215771
2023-02-20T06:48:52.451Z,51.215485
2023-02-20T06:49:52.435Z,51.215714
2023-02-20T06:50:52.434Z,51.215874
2023-02-20T06:51:52.458Z,51.216011
2023-02-20T06:52:52.415Z,51.216213
2023-02-20T06:53:52.417Z,51.216194
2023-02-20T06:54:52.413Z,51.216156
2023-02-20T06:55:52.447Z,51.216076
2023-02-20T06:56:52.407Z,51.215954
2023-02-20T06:57:52.427Z,51.215813
2023-02-20T06:58:52.414Z,51.215828
2023-02-20T06:59:52.425Z,51.215984
2023-02-20T07:00:52.426Z,51.215805
2023-02-20T07:01:52.388Z,51.215813
2023-02-20T07:02:52.384Z,51.215839
2023-02-20T07:03:52.352Z,51.216072
2023-02-20T07:04:52.347Z,51.215992
2023-02-20T07:05:52.339Z,51.215824
2023-02-20T07:06:52.330Z,51.215832
2023-02-20T07:07:52.340Z,51.215813
2023-02-20T07:08:52.354Z,51.215828
2023-02-20T07:09:52.314Z,51.215687
2023-02-20T07:10:52.307Z,51.215786
2023-02-20T07:11:52.302Z,51.216198
2023-02-20T07:12:52.296Z,51.216579
2023-02-20T07:13:52.306Z,51.216774
2023-02-20T07:14:52.286Z,51.216698
2023-02-20T07:15:52.308Z,51.216537
2023-02-20T07:16:52.265Z,51.216393
2023-02-20T07:17:52.260Z,51.216328
2023-02-20T07:18:52.257Z,51.216145
2023-02-20T07:19:52.279Z,51.216137
2023-02-20T07:20:54.722Z,51.216103
2023-02-20T07:21:52.237Z,51.216393
2023-02-20T07:22:52.222Z,51.216530
2023-02-20T07:23:52.238Z,51.216492
2023-02-20T07:24:52.229Z,51.216839
2023-02-20T07:25:52.197Z,51.216713
2023-02-20T07:26:52.202Z,51.216236
2023-02-20T07:27:52.201Z,51.216160
2023-02-20T07:28:54.440Z,51.216183
2023-02-20T07:29:53.170Z,51.216537
2023-02-20T07:30:52.163Z,51.216694
2023-02-20T07:31:53.301Z,51.216564
2023-02-20T07:32:52.176Z,51.216297
2023-02-20T07:33:52.199Z,51.216179
2023-02-20T07:35:03.648Z,51.216724
2023-02-20T07:35:54.138Z,51.216473
2023-02-20T07:36:52.140Z,51.216297
2023-02-20T07:37:52.123Z,51.215965
2023-02-20T07:38:52.123Z,51.216328
2023-02-20T07:39:52.146Z,51.216042
2023-02-20T07:40:52.119Z,51.216057
2023-02-20T07:41:52.094Z,51.216274
2023-02-20T07:42:52.104Z,51.216301
2023-02-20T07:43:52.093Z,51.216049
2023-02-20T07:44:52.075Z,51.215923
2023-02-20T07:45:52.096Z,51.216263
2023-02-20T07:46:52.064Z,51.216129
2023-02-20T07:47:52.055Z,51.216297
2023-02-20T07:48:52.088Z,51.216328
2023-02-20T07:49:52.045Z,51.216591
2023-02-20T07:50:52.049Z,51.216270
2023-02-20T07:51:52.023Z,51.216309
2023-02-20T07:52:52.016Z,51.216408
2023-02-20T07:53:52.020Z,51.216129
2023-02-20T07:54:52.016Z,51.216236
2023-02-20T07:55:52.003Z,51.216206
2023-02-20T07:56:52.009Z,51.216324
2023-02-20T07:57:52.007Z,51.216454
2023-02-20T07:58:51.990Z,51.216030
2023-02-20T07:59:51.971Z,51.216011
2023-02-20T08:00:51.976Z,51.216022
2023-02-20T08:01:52.009Z,51.215717
2023-02-20T08:02:51.959Z,51.215984
2023-02-20T08:03:51.954Z,51.215824
2023-02-20T08:04:51.978Z,51.215881
2023-02-20T08:05:51.946Z,51.216099
2023-02-20T08:06:51.959Z,51.216106
2023-02-20T08:07:51.935Z,51.216030
2023-02-20T08:08:51.919Z,51.216373
2023-02-20T08:09:51.914Z,51.216419
2023-02-20T08:10:57.138Z,51.215885
2023-02-20T08:11:53.950Z,51.215824
2023-02-20T08:12:51.903Z,51.215679
2023-02-20T08:13:51.922Z,51.215912
2023-02-20T08:14:51.884Z,51.216019
2023-02-20T08:15:51.931Z,51.215954
2023-02-20T08:16:51.882Z,51.215919
2023-02-20T08:17:52.428Z,51.215919
2023-02-20T08:18:51.900Z,51.216019
2023-02-20T08:19:51.850Z,51.216084
2023-02-20T08:20:51.823Z,51.216125
2023-02-20T08:21:51.831Z,51.215996
2023-02-20T08:22:51.858Z,51.215961
2023-02-20T08:23:51.812Z,51.215668
2023-02-20T08:24:51.809Z,51.215500
2023-02-20T08:25:51.826Z,51.215374
2023-02-20T08:26:51.792Z,51.215775
2023-02-20T08:27:51.817Z,51.215923
2023-02-20T08:28:51.788Z,51.216007
2023-02-20T08:29:51.788Z,51.215958
2023-02-20T08:30:51.784Z,51.216091
2023-02-20T08:31:51.852Z,51.216240
2023-02-20T08:32:51.922Z,51.216225
2023-02-20T08:33:51.748Z,51.216240
2023-02-20T08:34:51.744Z,51.216267
2023-02-20T08:35:51.758Z,51.216095
2023-02-20T08:36:51.727Z,51.216164
2023-02-20T08:37:51.737Z,51.216228
2023-02-20T08:38:51.743Z,51.216175
2023-02-20T08:39:51.834Z,51.216129
2023-02-20T08:40:51.725Z,51.216076
2023-02-20T08:41:51.707Z,51.215988
2023-02-20T08:42:51.754Z,51.215668
2023-02-20T08:43:51.691Z,51.215054
2023-02-20T08:44:51.684Z,51.215237
2023-02-20T08:45:51.702Z,51.215717
2023-02-20T08:46:51.662Z,51.216053
2023-02-20T08:47:51.659Z,51.215973
2023-02-20T08:48:51.676Z,51.216038
2023-02-20T08:49:51.651Z,51.215919
2023-02-20T08:50:51.635Z,51.216026
2023-02-20T08:51:51.634Z,51.215919
2023-02-20T08:52:51.638Z,51.215836
2023-02-20T08:53:51.621Z,51.215950
2023-02-20T08:54:51.605Z,51.215992
2023-02-20T08:55:51.616Z,51.216019
2023-02-20T08:56:51.605Z,51.216038
2023-02-20T08:57:51.603Z,51.216167
2023-02-20T08:58:51.586Z,51.216114
2023-02-20T08:59:51.579Z,51.216110
2023-02-20T09:00:51.605Z,51.215988
2023-02-20T09:01:51.608Z,51.215996
2023-02-20T09:02:51.650Z,51.215958
2023-02-20T09:03:51.604Z,51.216145
2023-02-20T09:04:51.547Z,51.216091
2023-02-20T09:05:51.538Z,51.216213
2023-02-20T09:06:51.560Z,51.216053
2023-02-20T09:07:51.531Z,51.215965
2023-02-20T09:08:51.509Z,51.216072
2023-02-20T09:09:51.518Z,51.216198
2023-02-20T09:10:51.524Z,51.216038
2023-02-20T09:11:51.511Z,51.216084
2023-02-20T09:12:51.499Z,51.216110
2023-02-20T09:13:51.489Z,51.215973
2023-02-20T09:14:51.486Z,51.216034
2023-02-20T09:15:51.492Z,51.216145
2023-02-20T09:16:51.527Z,51.216091
2023-02-20T09:17:51.478Z,51.216038
2023-02-20T09:18:51.453Z,51.216038
2023-02-20T09:19:51.512Z,51.216000
2023-02-20T09:20:51.436Z,51.216061
2023-02-20T09:21:51.462Z,51.216133
2023-02-20T09:22:51.423Z,51.216125
2023-02-20T09:23:51.433Z,51.216160
2023-02-20T09:24:51.434Z,51.216110
2023-02-20T09:25:51.424Z,51.216114
2023-02-20T09:26:51.421Z,51.216228
2023-02-20T09:27:51.410Z,51.216183
2023-02-20T09:28:51.387Z,51.216114
2023-02-20T09:29:51.393Z,51.216152
2023-02-20T09:30:51.382Z,51.216057
2023-02-20T09:31:51.437Z,51.216000
2023-02-20T09:32:51.353Z,51.216106
2023-02-20T09:33:51.854Z,51.216007
2023-02-20T09:34:52.355Z,51.216042
2023-02-20T09:35:51.339Z,51.215981
2023-02-20T09:36:51.340Z,51.216099
2023-02-20T09:37:51.351Z,51.216087
2023-02-20T09:38:51.333Z,51.216095
2023-02-20T09:39:51.322Z,51.216133
2023-02-20T09:40:51.333Z,51.216213
2023-02-20T09:41:51.287Z,51.216190
2023-02-20T09:42:51.303Z,51.216091
2023-02-20T09:43:51.300Z,51.216175
2023-02-20T09:44:51.277Z,51.216145
2023-02-20T09:45:51.297Z,51.216213
2023-02-20T09:46:51.285Z,51.216141
2023-02-20T09:47:51.253Z,51.215996
2023-02-20T09:48:51.265Z,51.216148
2023-02-20T09:49:51.240Z,51.216026
2023-02-20T09:50:51.256Z,51.216022
2023-02-20T09:51:51.241Z,51.216099
2023-02-20T09:52:51.230Z,51.216202
2023-02-20T09:53:51.220Z,51.216110
2023-02-20T09:54:51.221Z,51.216099
2023-02-20T09:55:51.212Z,51.216179
2023-02-20T09:56:51.180Z,51.216103
2023-02-20T09:57:51.210Z,51.216133
2023-02-20T09:58:51.184Z,51.216217
2023-02-20T09:59:51.178Z,51.216255
2023-02-20T10:00:51.169Z,51.216354
2023-02-20T10:01:51.218Z,51.216305
2023-02-20T10:02:51.236Z,51.216320
2023-02-20T10:03:51.141Z,51.216255
2023-02-20T10:05:00.924Z,51.216042
2023-02-20T10:05:53.123Z,51.216072
2023-02-20T10:06:51.116Z,51.216030
2023-02-20T10:07:51.112Z,51.215996
2023-02-20T10:08:51.104Z,51.216061
2023-02-20T10:09:51.102Z,51.216270
2023-02-20T10:10:51.090Z,51.215992
2023-02-20T10:11:51.080Z,51.216240
2023-02-20T10:12:51.078Z,51.216129
2023-02-20T10:13:51.090Z,51.216221
2023-02-20T10:14:51.088Z,51.216217
2023-02-20T10:15:51.071Z,51.216206
2023-02-20T10:16:51.049Z,51.216198
2023-02-20T10:17:51.038Z,51.216221
2023-02-20T10:18:51.052Z,51.216030
2023-02-20T10:19:51.045Z,51.216022
2023-02-20T10:20:51.032Z,51.216068
2023-02-20T10:21:51.025Z,51.216167
2023-02-20T10:22:51.008Z,51.216045
2023-02-20T10:24:04.676Z,51.215855
2023-02-20T10:24:52.011Z,51.215885
2023-02-20T10:25:51.019Z,51.216022
2023-02-20T10:26:50.978Z,51.216000
2023-02-20T10:27:50.976Z,51.216038
2023-02-20T10:28:50.994Z,51.215916
2023-02-20T10:29:50.993Z,51.215832
2023-02-20T10:30:51.005Z,51.216057
2023-02-20T10:31:51.059Z,51.216045
2023-02-20T10:32:50.941Z,51.216064
2023-02-20T10:33:50.945Z,51.216179
2023-02-20T10:34:50.966Z,51.216084
2023-02-20T10:35:50.945Z,51.216209
2023-02-20T10:36:50.912Z,51.216049
2023-02-20T10:37:50.908Z,51.216045
2023-02-20T10:38:50.908Z,51.216217
2023-02-20T10:39:50.925Z,51.216053
2023-02-20T10:40:50.892Z,51.216232
2023-02-20T10:41:50.883Z,51.216133
2023-02-20T10:42:50.883Z,51.216171
2023-02-20T10:43:50.871Z,51.216072
2023-02-20T10:44:52.524Z,51.215904
2023-02-20T10:45:51.901Z,51.216011
2023-02-20T10:46:50.871Z,51.215881
2023-02-20T10:47:50.851Z,51.215961
2023-02-20T10:48:50.835Z,51.216049
2023-02-20T10:49:50.832Z,51.216057
2023-02-20T10:50:50.834Z,51.216183
2023-02-20T10:51:50.813Z,51.215855
2023-02-20T10:52:50.832Z,51.215988
2023-02-20T10:53:50.843Z,51.216522
2023-02-20T10:54:50.813Z,51.216137
2023-02-20T10:55:50.858Z,51.216240
2023-02-20T10:56:50.827Z,51.216099
2023-02-20T10:57:50.799Z,51.215946
2023-02-20T10:58:50.792Z,51.215820
2023-02-20T10:59:52.476Z,51.215725
2023-02-20T11:00:51.768Z,51.216690
2023-02-20T11:01:50.851Z,51.216991
2023-02-20T11:02:50.737Z,51.217934
2023-02-20T11:03:50.744Z,51.217381
2023-02-20T11:04:50.729Z,51.217319
2023-02-20T11:05:50.755Z,51.216625
2023-02-20T11:06:50.722Z,51.216579
2023-02-20T11:07:50.713Z,51.216862
2023-02-20T11:08:50.700Z,51.216343
2023-02-20T11:09:50.709Z,51.215927
2023-02-20T11:10:50.686Z,51.216103
2023-02-20T11:11:50.702Z,51.216427
2023-02-20T11:12:50.678Z,51.216602
2023-02-20T11:13:50.704Z,51.216476
2023-02-20T11:14:50.678Z,51.216389
2023-02-20T11:15:50.742Z,51.216381
2023-02-20T11:16:50.657Z,51.216331
2023-02-20T11:17:50.641Z,51.216190
2023-02-20T11:18:50.673Z,51.216167
2023-02-20T11:19:50.670Z,51.216125
2023-02-20T11:20:50.621Z,51.216145
2023-02-20T11:21:50.626Z,51.216194
2023-02-20T11:22:50.613Z,51.216206
2023-02-20T11:23:50.611Z,51.216053
2023-02-20T11:24:50.613Z,51.215977